sensor_id;sensor_type;location;lat;lon;timestamp;temperature;humidity
25616;DHT22;13482;48.234;13.006;2023-05-16T00:01:13;14.80;71.00
25616;DHT22;13482;48.234;13.006;2023-05-16T00:03:40;14.80;70.90
25616;DHT22;13482;48.234;13.006;2023-05-16T00:06:08;14.80;71.00
25616;DHT22;13482;48.234;13.006;2023-05-16T00:08:35;14.80;70.90
25616;DHT22;13482;48.234;13.006;2023-05-16T00:11:02;14.80;70.90
25616;DHT22;13482;48.234;13.006;2023-05-16T00:13:30;14.80;70.90
25616;DHT22;13482;48.234;13.006;2023-05-16T00:15:57;14.80;70.90
25616;DHT22;13482;48.234;13.006;2023-05-16T00:18:28;14.80;70.90
25616;DHT22;13482;48.234;13.006;2023-05-16T00:20:55;14.80;71.00
25616;DHT22;13482;48.234;13.006;2023-05-16T00:23:23;14.80;71.10
25616;DHT22;13482;48.234;13.006;2023-05-16T00:25:50;14.80;71.10
25616;DHT22;13482;48.234;13.006;2023-05-16T00:28:17;14.80;71.10
25616;DHT22;13482;48.234;13.006;2023-05-16T00:30:44;14.80;71.00
25616;DHT22;13482;48.234;13.006;2023-05-16T00:33:11;14.70;71.00
25616;DHT22;13482;48.234;13.006;2023-05-16T00:35:39;14.70;71.00
25616;DHT22;13482;48.234;13.006;2023-05-16T00:38:06;14.70;71.00
25616;DHT22;13482;48.234;13.006;2023-05-16T00:40:33;14.70;71.00
25616;DHT22;13482;48.234;13.006;2023-05-16T00:43:00;14.60;71.00
25616;DHT22;13482;48.234;13.006;2023-05-16T00:45:28;14.60;71.10
25616;DHT22;13482;48.234;13.006;2023-05-16T00:47:55;14.60;71.00
25616;DHT22;13482;48.234;13.006;2023-05-16T00:50:22;14.60;70.90
25616;DHT22;13482;48.234;13.006;2023-05-16T00:52:50;14.60;70.70
25616;DHT22;13482;48.234;13.006;2023-05-16T00:55:17;14.50;70.70
25616;DHT22;13482;48.234;13.006;2023-05-16T00:57:44;14.50;70.70
25616;DHT22;13482;48.234;13.006;2023-05-16T01:00:12;14.50;70.60
25616;DHT22;13482;48.234;13.006;2023-05-16T01:02:41;14.50;70.60
25616;DHT22;13482;48.234;13.006;2023-05-16T01:05:09;14.50;70.60
25616;DHT22;13482;48.234;13.006;2023-05-16T01:07:36;14.40;70.60
25616;DHT22;13482;48.234;13.006;2023-05-16T01:10:05;14.40;70.70
25616;DHT22;13482;48.234;13.006;2023-05-16T01:12:39;14.40;70.70
25616;DHT22;13482;48.234;13.006;2023-05-16T01:15:19;14.40;70.70
25616;DHT22;13482;48.234;13.006;2023-05-16T01:21:00;14.40;70.70
25616;DHT22;13482;48.234;13.006;2023-05-16T01:23:59;14.30;70.40
25616;DHT22;13482;48.234;13.006;2023-05-16T01:26:31;14.30;70.50
25616;DHT22;13482;48.234;13.006;2023-05-16T01:28:59;14.30;70.40
25616;DHT22;13482;48.234;13.006;2023-05-16T01:31:27;14.30;70.60
25616;DHT22;13482;48.234;13.006;2023-05-16T01:33:55;14.20;70.70
25616;DHT22;13482;48.234;13.006;2023-05-16T01:36:39;14.20;70.80
25616;DHT22;13482;48.234;13.006;2023-05-16T01:39:46;14.20;71.20
25616;DHT22;13482;48.234;13.006;2023-05-16T01:42:24;14.20;71.40
25616;DHT22;13482;48.234;13.006;2023-05-16T01:44:59;14.20;71.00
25616;DHT22;13482;48.234;13.006;2023-05-16T01:47:30;14.20;71.10
25616;DHT22;13482;48.234;13.006;2023-05-16T01:50:15;14.10;71.10
25616;DHT22;13482;48.234;13.006;2023-05-16T01:55:28;14.10;71.20
25616;DHT22;13482;48.234;13.006;2023-05-16T01:58:04;14.10;71.50
25616;DHT22;13482;48.234;13.006;2023-05-16T02:00:33;14.00;71.10
25616;DHT22;13482;48.234;13.006;2023-05-16T02:03:01;14.00;71.10
25616;DHT22;13482;48.234;13.006;2023-05-16T02:05:28;14.00;71.20
25616;DHT22;13482;48.234;13.006;2023-05-16T02:07:57;14.00;71.20
25616;DHT22;13482;48.234;13.006;2023-05-16T02:10:25;14.00;71.30
25616;DHT22;13482;48.234;13.006;2023-05-16T02:12:53;13.90;71.40
25616;DHT22;13482;48.234;13.006;2023-05-16T02:15:20;13.90;71.40
25616;DHT22;13482;48.234;13.006;2023-05-16T02:17:47;13.90;71.20
25616;DHT22;13482;48.234;13.006;2023-05-16T02:20:14;13.90;71.10
25616;DHT22;13482;48.234;13.006;2023-05-16T02:22:41;13.90;71.10
25616;DHT22;13482;48.234;13.006;2023-05-16T02:25:10;13.80;71.00
25616;DHT22;13482;48.234;13.006;2023-05-16T02:27:37;13.80;70.90
25616;DHT22;13482;48.234;13.006;2023-05-16T02:30:05;13.80;70.90
25616;DHT22;13482;48.234;13.006;2023-05-16T02:32:33;13.80;70.90
25616;DHT22;13482;48.234;13.006;2023-05-16T02:35:00;13.70;71.20
25616;DHT22;13482;48.234;13.006;2023-05-16T02:37:27;13.70;71.10
25616;DHT22;13482;48.234;13.006;2023-05-16T02:39:54;13.70;71.10
25616;DHT22;13482;48.234;13.006;2023-05-16T02:42:21;13.70;71.20
25616;DHT22;13482;48.234;13.006;2023-05-16T02:44:48;13.60;71.30
25616;DHT22;13482;48.234;13.006;2023-05-16T02:47:15;13.60;71.30
25616;DHT22;13482;48.234;13.006;2023-05-16T02:49:43;13.60;71.40
25616;DHT22;13482;48.234;13.006;2023-05-16T02:52:10;13.60;71.60
25616;DHT22;13482;48.234;13.006;2023-05-16T02:54:37;13.60;71.70
25616;DHT22;13482;48.234;13.006;2023-05-16T02:57:04;13.60;71.70
25616;DHT22;13482;48.234;13.006;2023-05-16T02:59:32;13.50;71.70
25616;DHT22;13482;48.234;13.006;2023-05-16T03:01:59;13.50;71.70
25616;DHT22;13482;48.234;13.006;2023-05-16T03:04:27;13.50;71.80
25616;DHT22;13482;48.234;13.006;2023-05-16T03:06:54;13.50;71.80
25616;DHT22;13482;48.234;13.006;2023-05-16T03:09:22;13.50;71.90
25616;DHT22;13482;48.234;13.006;2023-05-16T03:11:49;13.50;71.90
25616;DHT22;13482;48.234;13.006;2023-05-16T03:14:16;13.50;72.00
25616;DHT22;13482;48.234;13.006;2023-05-16T03:16:43;13.50;72.00
25616;DHT22;13482;48.234;13.006;2023-05-16T03:19:10;13.50;72.00
25616;DHT22;13482;48.234;13.006;2023-05-16T03:21:38;13.50;72.00
25616;DHT22;13482;48.234;13.006;2023-05-16T03:24:05;13.50;72.00
25616;DHT22;13482;48.234;13.006;2023-05-16T03:26:33;13.50;72.10
25616;DHT22;13482;48.234;13.006;2023-05-16T03:29:01;13.50;72.20
25616;DHT22;13482;48.234;13.006;2023-05-16T03:31:31;13.50;72.20
25616;DHT22;13482;48.234;13.006;2023-05-16T03:33:59;13.40;72.20
25616;DHT22;13482;48.234;13.006;2023-05-16T03:36:26;13.40;72.10
25616;DHT22;13482;48.234;13.006;2023-05-16T03:38:54;13.40;72.10
25616;DHT22;13482;48.234;13.006;2023-05-16T03:41:21;13.40;72.00
25616;DHT22;13482;48.234;13.006;2023-05-16T03:43:49;13.40;72.00
25616;DHT22;13482;48.234;13.006;2023-05-16T03:46:16;13.40;72.00
25616;DHT22;13482;48.234;13.006;2023-05-16T03:48:44;13.40;71.90
25616;DHT22;13482;48.234;13.006;2023-05-16T03:51:12;13.30;72.00
25616;DHT22;13482;48.234;13.006;2023-05-16T03:53:39;13.30;72.10
25616;DHT22;13482;48.234;13.006;2023-05-16T03:56:07;13.30;72.20
25616;DHT22;13482;48.234;13.006;2023-05-16T03:58:34;13.30;72.10
25616;DHT22;13482;48.234;13.006;2023-05-16T04:01:01;13.30;72.10
25616;DHT22;13482;48.234;13.006;2023-05-16T04:03:29;13.30;72.20
25616;DHT22;13482;48.234;13.006;2023-05-16T04:05:57;13.30;72.30
25616;DHT22;13482;48.234;13.006;2023-05-16T04:08:24;13.30;72.40
25616;DHT22;13482;48.234;13.006;2023-05-16T04:10:51;13.30;72.50
25616;DHT22;13482;48.234;13.006;2023-05-16T04:13:18;13.30;72.40
25616;DHT22;13482;48.234;13.006;2023-05-16T04:15:46;13.40;72.40
25616;DHT22;13482;48.234;13.006;2023-05-16T04:18:13;13.40;72.50
25616;DHT22;13482;48.234;13.006;2023-05-16T04:20:43;13.40;72.50
25616;DHT22;13482;48.234;13.006;2023-05-16T04:23:13;13.40;72.60
25616;DHT22;13482;48.234;13.006;2023-05-16T04:25:40;13.40;72.50
25616;DHT22;13482;48.234;13.006;2023-05-16T04:28:08;13.50;72.60
25616;DHT22;13482;48.234;13.006;2023-05-16T04:30:36;13.50;72.70
25616;DHT22;13482;48.234;13.006;2023-05-16T04:33:04;13.50;72.90
25616;DHT22;13482;48.234;13.006;2023-05-16T04:35:32;13.60;73.10
25616;DHT22;13482;48.234;13.006;2023-05-16T04:37:59;13.60;73.20
25616;DHT22;13482;48.234;13.006;2023-05-16T04:40:26;13.70;73.40
25616;DHT22;13482;48.234;13.006;2023-05-16T04:42:54;13.80;73.60
25616;DHT22;13482;48.234;13.006;2023-05-16T04:45:21;13.80;73.70
25616;DHT22;13482;48.234;13.006;2023-05-16T04:47:48;13.90;73.70
25616;DHT22;13482;48.234;13.006;2023-05-16T04:50:16;14.00;73.50
25616;DHT22;13482;48.234;13.006;2023-05-16T04:52:44;14.10;73.50
25616;DHT22;13482;48.234;13.006;2023-05-16T04:55:11;14.10;73.40
25616;DHT22;13482;48.234;13.006;2023-05-16T04:57:38;14.20;73.30
25616;DHT22;13482;48.234;13.006;2023-05-16T05:00:06;14.20;73.30
25616;DHT22;13482;48.234;13.006;2023-05-16T05:02:36;14.20;73.20
25616;DHT22;13482;48.234;13.006;2023-05-16T05:05:05;14.30;73.20
25616;DHT22;13482;48.234;13.006;2023-05-16T05:07:33;14.30;73.20
25616;DHT22;13482;48.234;13.006;2023-05-16T05:10:00;14.30;73.30
25616;DHT22;13482;48.234;13.006;2023-05-16T05:12:28;14.40;73.30
25616;DHT22;13482;48.234;13.006;2023-05-16T05:14:55;14.40;73.40
25616;DHT22;13482;48.234;13.006;2023-05-16T05:17:22;14.40;73.50
25616;DHT22;13482;48.234;13.006;2023-05-16T05:19:50;14.50;73.60
25616;DHT22;13482;48.234;13.006;2023-05-16T05:22:17;14.50;73.60
25616;DHT22;13482;48.234;13.006;2023-05-16T05:24:44;14.60;73.70
25616;DHT22;13482;48.234;13.006;2023-05-16T05:27:12;14.60;73.80
25616;DHT22;13482;48.234;13.006;2023-05-16T05:29:39;14.70;73.70
25616;DHT22;13482;48.234;13.006;2023-05-16T05:32:07;14.80;73.80
25616;DHT22;13482;48.234;13.006;2023-05-16T05:34:34;14.90;73.90
25616;DHT22;13482;48.234;13.006;2023-05-16T05:37:01;14.90;73.80
25616;DHT22;13482;48.234;13.006;2023-05-16T05:39:28;15.00;73.80
25616;DHT22;13482;48.234;13.006;2023-05-16T05:41:55;15.10;73.80
25616;DHT22;13482;48.234;13.006;2023-05-16T05:44:23;15.20;73.80
25616;DHT22;13482;48.234;13.006;2023-05-16T05:46:50;15.20;73.70
25616;DHT22;13482;48.234;13.006;2023-05-16T05:49:17;15.30;73.60
25616;DHT22;13482;48.234;13.006;2023-05-16T05:51:44;15.30;73.60
25616;DHT22;13482;48.234;13.006;2023-05-16T05:54:12;15.40;73.50
25616;DHT22;13482;48.234;13.006;2023-05-16T05:56:39;15.40;73.60
25616;DHT22;13482;48.234;13.006;2023-05-16T05:59:06;15.50;73.80
25616;DHT22;13482;48.234;13.006;2023-05-16T06:01:33;15.60;74.00
25616;DHT22;13482;48.234;13.006;2023-05-16T06:04:00;15.70;74.20
25616;DHT22;13482;48.234;13.006;2023-05-16T06:06:28;15.90;74.10
25616;DHT22;13482;48.234;13.006;2023-05-16T06:08:55;16.00;74.20
25616;DHT22;13482;48.234;13.006;2023-05-16T06:11:22;16.10;74.00
25616;DHT22;13482;48.234;13.006;2023-05-16T06:13:51;16.20;73.80
25616;DHT22;13482;48.234;13.006;2023-05-16T06:16:18;16.30;73.70
25616;DHT22;13482;48.234;13.006;2023-05-16T06:18:49;16.40;73.60
25616;DHT22;13482;48.234;13.006;2023-05-16T06:21:16;16.50;73.40
25616;DHT22;13482;48.234;13.006;2023-05-16T06:23:44;16.60;73.40
25616;DHT22;13482;48.234;13.006;2023-05-16T06:26:11;16.70;73.30
25616;DHT22;13482;48.234;13.006;2023-05-16T06:28:38;16.80;73.20
25616;DHT22;13482;48.234;13.006;2023-05-16T06:31:05;16.90;73.10
25616;DHT22;13482;48.234;13.006;2023-05-16T06:33:32;17.00;72.90
25616;DHT22;13482;48.234;13.006;2023-05-16T06:35:59;17.10;72.90
25616;DHT22;13482;48.234;13.006;2023-05-16T06:38:26;17.20;72.80
25616;DHT22;13482;48.234;13.006;2023-05-16T06:40:54;17.30;72.60
25616;DHT22;13482;48.234;13.006;2023-05-16T06:43:21;17.40;72.70
25616;DHT22;13482;48.234;13.006;2023-05-16T06:45:48;17.50;72.60
25616;DHT22;13482;48.234;13.006;2023-05-16T06:48:17;17.60;72.40
25616;DHT22;13482;48.234;13.006;2023-05-16T06:50:49;17.60;72.20
25616;DHT22;13482;48.234;13.006;2023-05-16T06:53:17;17.70;72.10
25616;DHT22;13482;48.234;13.006;2023-05-16T06:55:45;17.80;71.90
25616;DHT22;13482;48.234;13.006;2023-05-16T06:58:13;17.80;71.80
25616;DHT22;13482;48.234;13.006;2023-05-16T07:00:41;17.90;71.70
25616;DHT22;13482;48.234;13.006;2023-05-16T07:03:09;17.90;71.50
25616;DHT22;13482;48.234;13.006;2023-05-16T07:05:37;17.90;71.30
25616;DHT22;13482;48.234;13.006;2023-05-16T07:08:04;17.90;71.20
25616;DHT22;13482;48.234;13.006;2023-05-16T07:10:33;17.90;71.10
25616;DHT22;13482;48.234;13.006;2023-05-16T07:13:01;17.90;71.10
25616;DHT22;13482;48.234;13.006;2023-05-16T07:15:28;17.90;71.10
25616;DHT22;13482;48.234;13.006;2023-05-16T07:17:56;17.90;71.20
25616;DHT22;13482;48.234;13.006;2023-05-16T07:20:24;17.90;71.20
25616;DHT22;13482;48.234;13.006;2023-05-16T07:22:51;18.00;71.30
25616;DHT22;13482;48.234;13.006;2023-05-16T07:25:18;18.00;71.30
25616;DHT22;13482;48.234;13.006;2023-05-16T07:27:46;18.10;71.40
25616;DHT22;13482;48.234;13.006;2023-05-16T07:30:13;18.20;71.50
25616;DHT22;13482;48.234;13.006;2023-05-16T07:32:41;18.30;71.40
25616;DHT22;13482;48.234;13.006;2023-05-16T07:35:09;18.30;71.30
25616;DHT22;13482;48.234;13.006;2023-05-16T07:37:36;18.40;71.30
25616;DHT22;13482;48.234;13.006;2023-05-16T07:40:04;18.50;71.20
25616;DHT22;13482;48.234;13.006;2023-05-16T07:42:32;18.60;71.20
25616;DHT22;13482;48.234;13.006;2023-05-16T07:44:59;18.70;71.20
25616;DHT22;13482;48.234;13.006;2023-05-16T07:47:27;18.80;71.20
25616;DHT22;13482;48.234;13.006;2023-05-16T07:49:55;18.90;71.10
25616;DHT22;13482;48.234;13.006;2023-05-16T07:52:22;18.90;71.00
25616;DHT22;13482;48.234;13.006;2023-05-16T07:54:50;19.00;70.80
25616;DHT22;13482;48.234;13.006;2023-05-16T07:57:17;19.10;70.50
25616;DHT22;13482;48.234;13.006;2023-05-16T07:59:47;19.20;70.30
25616;DHT22;13482;48.234;13.006;2023-05-16T08:02:15;19.20;69.90
25616;DHT22;13482;48.234;13.006;2023-05-16T08:04:42;19.20;69.80
25616;DHT22;13482;48.234;13.006;2023-05-16T08:07:10;19.20;69.60
25616;DHT22;13482;48.234;13.006;2023-05-16T08:09:37;19.20;69.50
25616;DHT22;13482;48.234;13.006;2023-05-16T08:12:05;19.20;69.80
25616;DHT22;13482;48.234;13.006;2023-05-16T08:14:32;19.30;69.70
25616;DHT22;13482;48.234;13.006;2023-05-16T08:17:00;19.30;69.70
25616;DHT22;13482;48.234;13.006;2023-05-16T08:19:28;19.30;69.60
25616;DHT22;13482;48.234;13.006;2023-05-16T08:21:55;19.40;69.50
25616;DHT22;13482;48.234;13.006;2023-05-16T08:24:23;19.50;69.70
25616;DHT22;13482;48.234;13.006;2023-05-16T08:26:50;19.50;69.70
25616;DHT22;13482;48.234;13.006;2023-05-16T08:29:17;19.60;69.30
25616;DHT22;13482;48.234;13.006;2023-05-16T08:31:45;19.70;69.40
25616;DHT22;13482;48.234;13.006;2023-05-16T08:34:12;19.80;69.40
25616;DHT22;13482;48.234;13.006;2023-05-16T08:36:39;19.90;69.70
25616;DHT22;13482;48.234;13.006;2023-05-16T08:39:07;20.10;69.70
25616;DHT22;13482;48.234;13.006;2023-05-16T08:41:37;20.20;69.70
25616;DHT22;13482;48.234;13.006;2023-05-16T08:44:05;20.40;69.90
25616;DHT22;13482;48.234;13.006;2023-05-16T08:46:32;20.50;69.80
25616;DHT22;13482;48.234;13.006;2023-05-16T08:49:04;20.70;69.50
25616;DHT22;13482;48.234;13.006;2023-05-16T08:51:34;20.90;69.00
25616;DHT22;13482;48.234;13.006;2023-05-16T08:54:05;21.00;68.70
25616;DHT22;13482;48.234;13.006;2023-05-16T08:56:37;21.00;68.30
25616;DHT22;13482;48.234;13.006;2023-05-16T08:59:05;21.10;68.10
25616;DHT22;13482;48.234;13.006;2023-05-16T09:01:33;21.10;68.10
25616;DHT22;13482;48.234;13.006;2023-05-16T09:04:04;21.10;67.80
25616;DHT22;13482;48.234;13.006;2023-05-16T09:06:36;21.20;67.60
25616;DHT22;13482;48.234;13.006;2023-05-16T09:09:04;21.20;67.30
25616;DHT22;13482;48.234;13.006;2023-05-16T09:11:34;21.10;67.30
25616;DHT22;13482;48.234;13.006;2023-05-16T09:14:03;21.10;67.40
25616;DHT22;13482;48.234;13.006;2023-05-16T09:16:31;21.10;67.50
25616;DHT22;13482;48.234;13.006;2023-05-16T09:19:00;21.10;67.50
25616;DHT22;13482;48.234;13.006;2023-05-16T09:21:32;21.10;67.50
25616;DHT22;13482;48.234;13.006;2023-05-16T09:24:07;21.10;67.40
25616;DHT22;13482;48.234;13.006;2023-05-16T09:26:38;21.20;67.30
25616;DHT22;13482;48.234;13.006;2023-05-16T09:29:12;21.20;67.50
25616;DHT22;13482;48.234;13.006;2023-05-16T09:31:40;21.20;67.30
25616;DHT22;13482;48.234;13.006;2023-05-16T09:34:08;21.20;67.60
25616;DHT22;13482;48.234;13.006;2023-05-16T09:36:37;21.30;67.50
25616;DHT22;13482;48.234;13.006;2023-05-16T09:39:06;21.30;67.40
25616;DHT22;13482;48.234;13.006;2023-05-16T09:41:34;21.30;67.60
25616;DHT22;13482;48.234;13.006;2023-05-16T09:44:05;21.40;67.70
25616;DHT22;13482;48.234;13.006;2023-05-16T09:46:36;21.50;67.70
25616;DHT22;13482;48.234;13.006;2023-05-16T09:49:04;21.50;67.70
25616;DHT22;13482;48.234;13.006;2023-05-16T09:51:32;21.60;67.70
25616;DHT22;13482;48.234;13.006;2023-05-16T09:54:00;21.70;67.70
25616;DHT22;13482;48.234;13.006;2023-05-16T09:56:27;21.70;67.80
25616;DHT22;13482;48.234;13.006;2023-05-16T09:58:55;21.80;67.50
25616;DHT22;13482;48.234;13.006;2023-05-16T10:01:23;21.90;67.20
25616;DHT22;13482;48.234;13.006;2023-05-16T10:03:51;21.90;66.80
25616;DHT22;13482;48.234;13.006;2023-05-16T10:06:19;21.90;66.70
25616;DHT22;13482;48.234;13.006;2023-05-16T10:08:46;21.90;66.70
25616;DHT22;13482;48.234;13.006;2023-05-16T10:11:15;21.90;66.60
25616;DHT22;13482;48.234;13.006;2023-05-16T10:13:44;21.90;66.60
25616;DHT22;13482;48.234;13.006;2023-05-16T10:16:21;21.90;66.70
25616;DHT22;13482;48.234;13.006;2023-05-16T10:18:51;22.00;66.50
25616;DHT22;13482;48.234;13.006;2023-05-16T10:21:21;21.90;66.40
25616;DHT22;13482;48.234;13.006;2023-05-16T10:23:50;21.90;66.30
25616;DHT22;13482;48.234;13.006;2023-05-16T10:26:19;21.90;66.30
25616;DHT22;13482;48.234;13.006;2023-05-16T10:28:49;21.90;66.10
25616;DHT22;13482;48.234;13.006;2023-05-16T10:31:17;21.80;66.00
25616;DHT22;13482;48.234;13.006;2023-05-16T10:33:45;21.80;65.90
25616;DHT22;13482;48.234;13.006;2023-05-16T10:36:13;21.70;65.80
25616;DHT22;13482;48.234;13.006;2023-05-16T10:38:42;21.70;65.90
25616;DHT22;13482;48.234;13.006;2023-05-16T10:41:11;21.60;65.80
25616;DHT22;13482;48.234;13.006;2023-05-16T10:43:39;21.60;65.90
25616;DHT22;13482;48.234;13.006;2023-05-16T10:46:10;21.60;66.10
25616;DHT22;13482;48.234;13.006;2023-05-16T10:48:39;21.50;66.00
25616;DHT22;13482;48.234;13.006;2023-05-16T10:53:53;21.40;65.70
25616;DHT22;13482;48.234;13.006;2023-05-16T10:56:25;21.40;66.10
25616;DHT22;13482;48.234;13.006;2023-05-16T10:58:54;21.40;66.20
25616;DHT22;13482;48.234;13.006;2023-05-16T11:01:24;21.30;66.20
25616;DHT22;13482;48.234;13.006;2023-05-16T11:04:04;21.30;66.30
25616;DHT22;13482;48.234;13.006;2023-05-16T11:06:34;21.30;66.10
25616;DHT22;13482;48.234;13.006;2023-05-16T11:09:19;21.20;66.30
25616;DHT22;13482;48.234;13.006;2023-05-16T11:17:10;21.20;66.40
25616;DHT22;13482;48.234;13.006;2023-05-16T11:19:53;21.10;66.50
25616;DHT22;13482;48.234;13.006;2023-05-16T11:22:27;21.10;66.50
25616;DHT22;13482;48.234;13.006;2023-05-16T11:27:44;21.00;66.70
25616;DHT22;13482;48.234;13.006;2023-05-16T11:30:14;21.00;66.70
25616;DHT22;13482;48.234;13.006;2023-05-16T11:32:45;20.90;66.70
25616;DHT22;13482;48.234;13.006;2023-05-16T11:35:16;20.90;66.80
25616;DHT22;13482;48.234;13.006;2023-05-16T11:37:44;20.80;66.90
25616;DHT22;13482;48.234;13.006;2023-05-16T11:40:13;20.80;66.90
25616;DHT22;13482;48.234;13.006;2023-05-16T11:42:43;20.70;66.90
25616;DHT22;13482;48.234;13.006;2023-05-16T11:45:18;20.70;66.90
25616;DHT22;13482;48.234;13.006;2023-05-16T11:47:48;20.60;67.10
25616;DHT22;13482;48.234;13.006;2023-05-16T11:50:19;20.50;67.30
25616;DHT22;13482;48.234;13.006;2023-05-16T11:52:50;20.50;67.50
25616;DHT22;13482;48.234;13.006;2023-05-16T11:55:21;20.40;67.60
25616;DHT22;13482;48.234;13.006;2023-05-16T11:58:07;20.40;67.80
25616;DHT22;13482;48.234;13.006;2023-05-16T12:00:35;20.40;67.80
25616;DHT22;13482;48.234;13.006;2023-05-16T12:03:03;20.30;68.00
25616;DHT22;13482;48.234;13.006;2023-05-16T12:05:32;20.30;68.10
25616;DHT22;13482;48.234;13.006;2023-05-16T12:08:01;20.20;68.10
25616;DHT22;13482;48.234;13.006;2023-05-16T12:10:31;20.20;68.20
25616;DHT22;13482;48.234;13.006;2023-05-16T12:13:01;20.20;68.30
25616;DHT22;13482;48.234;13.006;2023-05-16T12:15:29;20.20;68.40
25616;DHT22;13482;48.234;13.006;2023-05-16T12:17:57;20.20;68.40
25616;DHT22;13482;48.234;13.006;2023-05-16T12:20:25;20.20;68.40
25616;DHT22;13482;48.234;13.006;2023-05-16T12:22:52;20.10;68.50
25616;DHT22;13482;48.234;13.006;2023-05-16T12:25:31;20.10;68.50
25616;DHT22;13482;48.234;13.006;2023-05-16T12:28:03;20.10;68.40
25616;DHT22;13482;48.234;13.006;2023-05-16T12:30:33;20.10;68.40
25616;DHT22;13482;48.234;13.006;2023-05-16T12:33:13;20.00;68.60
25616;DHT22;13482;48.234;13.006;2023-05-16T12:35:43;20.10;69.10
25616;DHT22;13482;48.234;13.006;2023-05-16T12:38:13;20.10;68.90
25616;DHT22;13482;48.234;13.006;2023-05-16T12:40:42;20.00;69.00
25616;DHT22;13482;48.234;13.006;2023-05-16T12:43:28;20.10;69.10
25616;DHT22;13482;48.234;13.006;2023-05-16T12:45:56;20.10;69.30
25616;DHT22;13482;48.234;13.006;2023-05-16T12:48:32;20.10;68.90
25616;DHT22;13482;48.234;13.006;2023-05-16T12:51:13;20.20;69.20
25616;DHT22;13482;48.234;13.006;2023-05-16T12:53:44;20.20;69.60
25616;DHT22;13482;48.234;13.006;2023-05-16T12:56:27;20.20;69.30
25616;DHT22;13482;48.234;13.006;2023-05-16T12:58:54;20.20;69.10
25616;DHT22;13482;48.234;13.006;2023-05-16T13:01:22;20.30;68.90
25616;DHT22;13482;48.234;13.006;2023-05-16T13:03:49;20.30;68.50
25616;DHT22;13482;48.234;13.006;2023-05-16T13:06:16;20.30;68.30
25616;DHT22;13482;48.234;13.006;2023-05-16T13:08:44;20.30;68.00
25616;DHT22;13482;48.234;13.006;2023-05-16T13:11:11;20.30;67.90
25616;DHT22;13482;48.234;13.006;2023-05-16T13:13:38;20.20;67.90
25616;DHT22;13482;48.234;13.006;2023-05-16T13:16:06;20.20;67.90
25616;DHT22;13482;48.234;13.006;2023-05-16T13:18:33;20.20;68.10
25616;DHT22;13482;48.234;13.006;2023-05-16T13:21:02;20.20;68.10
25616;DHT22;13482;48.234;13.006;2023-05-16T13:23:30;20.20;68.20
25616;DHT22;13482;48.234;13.006;2023-05-16T13:25:58;20.20;68.20
25616;DHT22;13482;48.234;13.006;2023-05-16T13:28:25;20.20;68.10
25616;DHT22;13482;48.234;13.006;2023-05-16T13:30:53;20.10;67.90
25616;DHT22;13482;48.234;13.006;2023-05-16T13:33:20;20.10;67.70
25616;DHT22;13482;48.234;13.006;2023-05-16T13:35:48;20.10;67.80
25616;DHT22;13482;48.234;13.006;2023-05-16T13:38:15;20.10;67.90
25616;DHT22;13482;48.234;13.006;2023-05-16T13:40:42;20.00;68.00
25616;DHT22;13482;48.234;13.006;2023-05-16T13:43:10;20.00;68.10
25616;DHT22;13482;48.234;13.006;2023-05-16T13:45:40;20.00;68.20
25616;DHT22;13482;48.234;13.006;2023-05-16T13:48:07;20.00;68.20
25616;DHT22;13482;48.234;13.006;2023-05-16T13:50:34;20.00;68.30
25616;DHT22;13482;48.234;13.006;2023-05-16T13:53:10;20.00;68.20
25616;DHT22;13482;48.234;13.006;2023-05-16T13:55:37;19.90;68.10
25616;DHT22;13482;48.234;13.006;2023-05-16T13:58:04;19.90;67.80
25616;DHT22;13482;48.234;13.006;2023-05-16T14:00:32;19.90;67.70
25616;DHT22;13482;48.234;13.006;2023-05-16T14:03:11;19.80;67.70
25616;DHT22;13482;48.234;13.006;2023-05-16T14:05:38;19.80;67.70
25616;DHT22;13482;48.234;13.006;2023-05-16T14:08:05;19.70;67.70
25616;DHT22;13482;48.234;13.006;2023-05-16T14:10:33;19.70;67.60
25616;DHT22;13482;48.234;13.006;2023-05-16T14:13:01;19.70;67.90
25616;DHT22;13482;48.234;13.006;2023-05-16T14:15:32;19.70;68.10
25616;DHT22;13482;48.234;13.006;2023-05-16T14:17:59;19.70;68.20
25616;DHT22;13482;48.234;13.006;2023-05-16T14:20:26;19.70;68.20
25616;DHT22;13482;48.234;13.006;2023-05-16T14:22:55;19.70;68.00
25616;DHT22;13482;48.234;13.006;2023-05-16T14:25:34;19.70;67.90
25616;DHT22;13482;48.234;13.006;2023-05-16T14:28:16;19.70;67.70
25616;DHT22;13482;48.234;13.006;2023-05-16T14:30:53;19.70;67.50
25616;DHT22;13482;48.234;13.006;2023-05-16T14:33:20;19.70;67.30
25616;DHT22;13482;48.234;13.006;2023-05-16T14:35:48;19.60;67.40
25616;DHT22;13482;48.234;13.006;2023-05-16T14:44:34;19.40;67.50
25616;DHT22;13482;48.234;13.006;2023-05-16T14:47:03;19.40;67.70
25616;DHT22;13482;48.234;13.006;2023-05-16T14:49:30;19.30;67.70
25616;DHT22;13482;48.234;13.006;2023-05-16T14:51:58;19.20;67.80
25616;DHT22;13482;48.234;13.006;2023-05-16T14:54:25;19.20;67.80
25616;DHT22;13482;48.234;13.006;2023-05-16T14:56:52;19.10;67.80
25616;DHT22;13482;48.234;13.006;2023-05-16T14:59:19;19.00;67.80
25616;DHT22;13482;48.234;13.006;2023-05-16T15:01:46;18.90;68.00
25616;DHT22;13482;48.234;13.006;2023-05-16T15:04:14;18.90;68.00
25616;DHT22;13482;48.234;13.006;2023-05-16T15:06:41;18.80;68.00
25616;DHT22;13482;48.234;13.006;2023-05-16T15:09:08;18.70;68.10
25616;DHT22;13482;48.234;13.006;2023-05-16T15:11:36;18.70;68.20
25616;DHT22;13482;48.234;13.006;2023-05-16T15:14:03;18.60;68.30
25616;DHT22;13482;48.234;13.006;2023-05-16T15:16:52;18.60;68.40
25616;DHT22;13482;48.234;13.006;2023-05-16T15:19:19;18.50;68.60
25616;DHT22;13482;48.234;13.006;2023-05-16T15:21:47;18.50;68.70
25616;DHT22;13482;48.234;13.006;2023-05-16T15:24:14;18.50;68.80
25616;DHT22;13482;48.234;13.006;2023-05-16T15:26:42;18.40;68.90
25616;DHT22;13482;48.234;13.006;2023-05-16T15:29:10;18.40;68.90
25616;DHT22;13482;48.234;13.006;2023-05-16T15:31:37;18.30;68.90
25616;DHT22;13482;48.234;13.006;2023-05-16T15:34:04;18.20;69.00
25616;DHT22;13482;48.234;13.006;2023-05-16T15:36:34;18.20;69.20
25616;DHT22;13482;48.234;13.006;2023-05-16T15:39:07;18.20;69.30
25616;DHT22;13482;48.234;13.006;2023-05-16T15:41:39;18.10;69.40
25616;DHT22;13482;48.234;13.006;2023-05-16T15:44:26;18.10;69.50
25616;DHT22;13482;48.234;13.006;2023-05-16T15:46:58;18.00;69.40
25616;DHT22;13482;48.234;13.006;2023-05-16T15:49:40;17.90;69.40